Time;durP1;ratioP1;P1;durP2;ratioP2;P2;SDS_P1;SDS_P2;PMS_P1;PMS_P2;Temp;Humidity;BMP_temperature;BMP_pressure;BME280_temperature;BME280_humidity;BME280_pressure;Samples;Min_cycle;Max_cycle;Signal;HPM_P1;HPM_P2
2023/02/17 00:13:30;;;;;;;9.60;7.67;;;12.50;99.90;;;;;;5083424;28;20504;-84
2023/02/17 00:17:01;;;;;;;9.00;7.47;;;12.40;99.90;;;;;;5067408;28;20467;-83
2023/02/17 00:28:47;;;;;;;7.70;6.53;;;12.80;99.90;;;;;;4993354;28;20452;-84
2023/02/17 00:45:24;;;;;;;4.80;4.40;;;12.50;99.90;;;;;;5024852;28;20562;-83
2023/02/17 00:48:26;;;;;;;5.60;4.83;;;12.30;99.90;;;;;;4956787;28;21026;-84
2023/02/17 00:51:45;;;;;;;4.30;3.77;;;12.20;99.90;;;;;;4956731;28;21048;-83
2023/02/17 00:56:12;;;;;;;8.37;4.30;;;12.20;99.90;;;;;;4948802;28;21025;-83
2023/02/17 00:59:10;;;;;;;6.13;4.70;;;12.10;99.90;;;;;;4941135;28;21595;-85
2023/02/17 01:06:12;;;;;;;5.80;4.87;;;12.20;99.90;;;;;;4927646;28;20503;-84
2023/02/17 01:28:15;;;;;;;5.13;4.60;;;12.50;99.90;;;;;;4987855;28;20462;-84
2023/02/17 01:50:13;;;;;;;;;;;;;;;;;;;;;
2023/02/17 02:16:37;;;;;;;5.43;4.50;;;12.50;99.90;;;;;;4987547;28;20941;-84
2023/02/17 02:35:37;;;;;;;;;;;;;;;;;;;;;
2023/02/17 03:17:32;;;;;;;6.10;5.60;;;12.30;99.90;;;;;;5030286;28;20480;-84
2023/02/17 03:20:43;;;;;;;6.73;6.00;;;12.60;99.90;;;;;;5030106;28;20527;-83
2023/02/17 03:24:14;;;;;;;7.93;5.57;;;12.50;99.90;;;;;;5030584;28;20499;-84
2023/02/17 03:27:24;;;;;;;8.37;5.63;;;12.50;99.90;;;;;;4942191;28;20571;-83
2023/02/17 03:30:37;;;;;;;6.17;5.33;;;12.90;99.90;;;;;;4937996;29;20472;-84
2023/02/17 03:33:26;;;;;;;6.93;6.20;;;12.90;99.90;;;;;;4957782;28;20469;-84
2023/02/17 03:37:09;;;;;;;6.03;5.43;;;12.70;99.90;;;;;;4949994;28;20766;-84
2023/02/17 03:47:44;;;;;;;5.60;5.10;;;12.70;99.90;;;;;;5040922;28;20779;-85
2023/02/17 03:51:03;;;;;;;;;;;;;;;;;;;;;
2023/02/17 03:54:25;;;;;;;5.90;5.30;;;12.70;99.90;;;;;;5030310;28;20429;-84
2023/02/17 04:01:25;;;;;;;;;;;;;;;;;;;;;
2023/02/17 04:08:28;;;;;;;7.37;5.43;;;12.70;99.90;;;;;;5027427;28;20529;-85
2023/02/17 04:11:42;;;;;;;5.30;4.80;;;12.90;99.90;;;;;;5027160;28;20445;-84
2023/02/17 04:15:07;;;;;;;5.57;4.90;;;13.00;99.90;;;;;;5008027;28;20477;-84
2023/02/17 04:18:47;;;;;;;5.60;5.10;;;12.80;99.90;;;;;;4993154;28;20533;-84
2023/02/17 04:21:52;;;;;;;5.30;4.80;;;12.70;99.90;;;;;;5032620;28;20459;-85
2023/02/17 04:25:03;;;;;;;5.90;5.40;;;13.30;99.90;;;;;;5030357;28;20502;-85
2023/02/17 04:28:09;;;;;;;5.13;4.63;;;13.30;99.90;;;;;;5033563;28;20457;-85
2023/02/17 04:31:58;;;;;;;;;;;;;;;;;;;;;
2023/02/17 04:35:33;;;;;;;5.23;4.77;;;13.20;99.90;;;;;;5030682;28;20472;-84
2023/02/17 04:38:22;;;;;;;4.30;3.90;;;13.30;99.90;;;;;;4979918;28;20481;-86
2023/02/17 04:41:44;;;;;;;5.07;4.60;;;13.30;99.90;;;;;;5020731;28;20499;-85
2023/02/17 04:45:06;;;;;;;4.60;4.20;;;13.10;99.90;;;;;;4959680;28;20476;-84
2023/02/17 04:48:51;;;;;;;4.77;4.37;;;12.80;99.90;;;;;;4924122;29;20478;-85
2023/02/17 04:52:58;;;;;;;;;;;;;;;;;;;;;
2023/02/17 04:56:08;;;;;;;4.80;4.40;;;13.30;99.90;;;;;;4825967;29;20436;-88
2023/02/17 04:59:48;;;;;;;;;;;;;;;;;;;;;
2023/02/17 05:03:28;;;;;;;5.43;4.93;;;12.70;99.90;;;;;;4826565;29;20497;-85
2023/02/17 05:07:14;;;;;;;5.07;4.67;;;13.10;99.90;;;;;;4821741;29;20476;-84
2023/02/17 05:11:12;;;;;;;;;;;;;;;;;;;;;
2023/02/17 05:14:45;;;;;;;;;;;;;;;;;;;;;
2023/02/17 05:25:19;;;;;;;;;;;;;;;;;;;;;
2023/02/17 05:28:35;;;;;;;5.30;4.43;;;13.10;99.90;;;;;;4877094;29;20500;-83
2023/02/17 05:31:34;;;;;;;5.00;4.30;;;13.20;99.90;;;;;;4899424;29;20479;-83
2023/02/17 05:35:16;;;;;;;5.47;4.40;;;13.30;99.90;;;;;;4916693;29;20443;-83
2023/02/17 05:38:26;;;;;;;4.47;4.07;;;13.00;99.90;;;;;;5022643;28;20453;-84
2023/02/17 05:49:29;;;;;;;4.80;4.40;;;12.70;99.90;;;;;;4938881;29;20466;-83
2023/02/17 06:04:03;;;;;;;4.57;4.27;;;12.70;99.90;;;;;;4872765;29;20499;-84
2023/02/17 06:06:55;;;;;;;4.07;3.77;;;12.80;99.90;;;;;;4828035;29;20454;-83
2023/02/17 06:09:33;;;;;;;4.67;4.10;;;12.70;99.90;;;;;;4837172;29;20443;-84
2023/02/17 06:23:57;;;;;;;4.03;3.63;;;12.80;99.90;;;;;;4894839;29;20470;-85
2023/02/17 06:27:18;;;;;;;4.37;4.07;;;12.70;99.90;;;;;;4886341;29;20447;-83
2023/02/17 06:33:55;;;;;;;4.03;3.53;;;12.60;99.90;;;;;;4881308;29;20451;-83
2023/02/17 06:37:10;;;;;;;3.80;3.50;;;12.60;99.90;;;;;;4908921;29;20451;-84
2023/02/17 06:52:15;;;;;;;;;;;;;;;;;;;;;
2023/02/17 06:56:12;;;;;;;4.37;3.50;;;12.70;99.90;;;;;;4841602;29;20453;-84
2023/02/17 07:15:59;;;;;;;4.07;3.67;;;13.10;99.90;;;;;;4000030;23;20580;-84
2023/02/17 07:19:48;;;;;;;3.50;3.20;;;13.00;99.90;;;;;;4957793;29;20484;-84
2023/02/17 07:31:03;;;;;;;4.20;3.80;;;13.40;99.90;;;;;;4848408;29;20437;-87
2023/02/17 08:31:21;;;;;;;;;;;;;;;;;;;;;
2023/02/17 08:38:30;;;;;;;;;;;;;;;;;;;;;
2023/02/17 09:19:32;;;;;;;;;;;;;;;;;;;;;
2023/02/17 09:23:21;;;;;;;2.60;2.40;;;14.60;99.90;;;;;;4916365;29;21863;-83
2023/02/17 09:27:22;;;;;;;;;;;;;;;;;;;;;
2023/02/17 09:35:16;;;;;;;2.40;2.20;;;15.30;99.90;;;;;;5010048;28;20556;-84
2023/02/17 09:39:24;;;;;;;2.10;2.00;;;15.30;99.90;;;;;;4831712;29;20946;-83
2023/02/17 09:42:43;;;;;;;2.53;2.33;;;15.70;99.90;;;;;;4722598;30;20484;-85
2023/02/17 09:46:22;;;;;;;1.87;1.77;;;15.30;99.90;;;;;;4790421;29;20501;-84
2023/02/17 09:49:51;;;;;;;2.50;2.30;;;15.30;99.90;;;;;;4777418;29;20456;-84
2023/02/17 09:57:39;;;;;;;2.70;2.50;;;15.30;99.90;;;;;;4831577;29;20444;-83
2023/02/17 10:00:46;;;;;;;4.17;2.63;;;15.20;99.90;;;;;;4815309;29;20463;-85
2023/02/17 10:08:33;;;;;;;2.93;2.03;;;15.40;99.90;;;;;;4854794;29;20442;-84
2023/02/17 10:12:20;;;;;;;2.73;1.80;;;16.10;99.90;;;;;;4867695;29;20513;-84
2023/02/17 10:20:17;;;;;;;3.73;2.80;;;16.30;99.00;;;;;;4841170;29;20466;-85
2023/02/17 10:36:38;;;;;;;;;;;;;;;;;;;;;
2023/02/17 10:40:42;;;;;;;2.10;1.90;;;16.50;98.30;;;;;;4920489;29;20521;-85
2023/02/17 10:48:46;;;;;;;;;;;;;;;;;;;;;
2023/02/17 10:52:49;;;;;;;1.77;1.67;;;16.70;98.00;;;;;;4971334;28;20510;-85
2023/02/17 11:00:23;;;;;;;4.43;1.77;;;16.50;98.20;;;;;;4925805;29;20451;-87
2023/02/17 11:03:53;;;;;;;3.77;1.70;;;16.40;98.20;;;;;;4914088;28;20468;-83
2023/02/17 11:11:06;;;;;;;2.03;1.33;;;16.30;98.60;;;;;;4925258;29;20446;-83
2023/02/17 11:14:36;;;;;;;2.37;1.40;;;16.30;99.00;;;;;;4920020;29;20456;-84
2023/02/17 11:18:16;;;;;;;;;;;;;;;;;;;;;
2023/02/17 11:25:04;;;;;;;1.70;1.60;;;16.30;99.00;;;;;;1245131;26;20490;-84
2023/02/17 11:28:35;;;;;;;3.33;1.63;;;16.30;99.00;;;;;;5041024;28;20482;-84
2023/02/17 11:31:54;;;;;;;;;;;;;;;;;;;;;
2023/02/17 11:42:46;;;;;;;2.30;1.77;;;16.30;99.30;;;;;;5031211;28;20507;-84
2023/02/17 11:54:14;;;;;;;5.03;1.30;;;16.20;99.60;;;;;;5016572;28;20457;-85
2023/02/17 11:58:03;;;;;;;1.47;1.27;;;16.40;99.60;;;;;;5015731;28;20518;-84
2023/02/17 12:12:54;;;;;;;;;;;;;;;;;;;;;
2023/02/17 12:16:12;;;;;;;3.20;1.63;;;16.80;98.50;;;;;;5031968;28;20465;-83
2023/02/17 12:37:19;;;;;;;1.70;1.33;;;16.70;97.80;;;;;;4848716;29;20506;-83
2023/02/17 13:09:02;;;;;;;2.07;1.40;;;16.80;97.10;;;;;;4998669;28;20482;-84
2023/02/17 13:11:42;;;;;;;2.30;1.63;;;16.90;97.40;;;;;;5007911;28;20537;-84
2023/02/17 13:14:38;;;;;;;1.50;1.40;;;16.80;97.20;;;;;;4991401;28;20454;-84
2023/02/17 13:17:54;;;;;;;1.63;1.20;;;16.80;97.40;;;;;;4990650;28;20451;-83
2023/02/17 13:21:08;;;;;;;6.30;1.50;;;16.80;97.40;;;;;;4993669;28;20447;-83
2023/02/17 13:24:06;;;;;;;3.30;1.80;;;16.90;97.40;;;;;;5001842;28;20866;-85
2023/02/17 13:27:22;;;;;;;10.00;2.10;;;16.80;97.30;;;;;;4997106;28;20447;-84
2023/02/17 13:30:30;;;;;;;6.97;2.47;;;16.90;97.30;;;;;;5000681;28;20467;-83
2023/02/17 13:33:26;;;;;;;2.33;1.40;;;16.90;97.30;;;;;;5009544;28;20494;-83
2023/02/17 13:36:12;;;;;;;5.27;1.97;;;17.00;97.20;;;;;;5009271;28;20466;-83
2023/02/17 13:39:40;;;;;;;6.07;2.27;;;16.90;97.30;;;;;;4990929;28;20459;-82
2023/02/17 13:42:48;;;;;;;11.53;2.50;;;16.90;97.30;;;;;;5003050;28;20523;-83
2023/02/17 13:46:01;;;;;;;15.03;2.20;;;17.00;97.30;;;;;;5010294;28;20481;-85
2023/02/17 13:49:03;;;;;;;9.40;2.07;;;17.00;97.30;;;;;;4969423;28;20451;-84
2023/02/17 13:52:03;;;;;;;7.30;2.53;;;16.90;97.40;;;;;;4987496;28;20662;-82
2023/02/17 13:54:59;;;;;;;10.90;2.37;;;17.00;97.50;;;;;;5011807;28;20443;-83
2023/02/17 13:57:45;;;;;;;10.00;2.23;;;16.80;97.40;;;;;;4983905;28;20478;-82
2023/02/17 14:00:49;;;;;;;9.13;2.50;;;16.80;97.30;;;;;;4997729;28;21118;-82
2023/02/17 14:06:19;;;;;;;;;;;;;;;;;;;;;
2023/02/17 14:09:43;;;;;;;10.40;2.77;;;16.60;97.70;;;;;;5311991;23;20895;-81
2023/02/17 14:13:01;;;;;;;10.73;2.57;;;16.60;98.00;;;;;;5027952;28;20548;-83
2023/02/17 14:19:09;;;;;;;;;;;;;;;;;;;;;
2023/02/17 14:22:13;;;;;;;5.07;3.60;;;16.40;98.40;;;;;;4958601;28;20478;-84
2023/02/17 14:24:59;;;;;;;11.30;3.80;;;16.30;98.50;;;;;;4991426;28;20483;-83
2023/02/17 14:27:55;;;;;;;7.20;3.50;;;16.40;98.60;;;;;;4998929;28;20463;-83
2023/02/17 14:30:40;;;;;;;8.97;2.87;;;16.30;98.50;;;;;;4987544;28;20490;-79
2023/02/17 14:33:24;;;;;;;7.93;3.17;;;16.30;98.50;;;;;;5002388;28;20973;-81
2023/02/17 14:36:19;;;;;;;6.70;2.40;;;16.30;98.40;;;;;;4999235;28;20475;-82
2023/02/17 14:39:15;;;;;;;8.53;2.93;;;16.30;98.50;;;;;;5001341;28;20447;-81
2023/02/17 14:42:22;;;;;;;;;;;;;;;;;;;;;
2023/02/17 14:46:01;;;;;;;;;;;;;;;;;;;;;
2023/02/17 14:49:31;;;;;;;4.40;2.47;;;16.20;98.30;;;;;;4980191;28;20443;-82
2023/02/17 14:52:27;;;;;;;10.77;3.90;;;16.20;98.40;;;;;;4998087;28;20478;-86
2023/02/17 14:54:58;;;;;;;3.17;2.87;;;16.20;98.30;;;;;;5025898;28;20463;-88
2023/02/17 14:57:38;;;;;;;3.90;2.50;;;16.20;98.30;;;;;;5012204;28;20443;-85
2023/02/17 15:00:11;;;;;;;5.10;3.03;;;16.20;98.10;;;;;;5011084;28;20459;-82
2023/02/17 15:03:06;;;;;;;8.07;2.77;;;16.10;97.90;;;;;;4995632;28;20529;-83
2023/02/17 15:05:47;;;;;;;7.73;1.87;;;16.10;98.10;;;;;;5000992;28;20479;-82
2023/02/17 15:08:32;;;;;;;5.47;2.10;;;16.10;98.10;;;;;;4997054;28;20466;-83
2023/02/17 15:11:20;;;;;;;6.40;2.30;;;16.00;98.20;;;;;;4999854;28;20794;-84
2023/02/17 15:13:57;;;;;;;4.30;2.03;;;16.00;98.20;;;;;;4994802;28;20483;-81
2023/02/17 15:16:29;;;;;;;6.43;1.90;;;16.00;98.10;;;;;;5017685;28;20461;-82
2023/02/17 15:19:20;;;;;;;5.17;2.10;;;15.90;98.20;;;;;;4997735;28;20479;-82
2023/02/17 15:22:14;;;;;;;3.73;1.63;;;15.90;98.10;;;;;;4998262;28;20517;-81
2023/02/17 15:25:21;;;;;;;4.33;2.20;;;15.80;98.10;;;;;;5008301;28;20541;-81
2023/02/17 15:27:51;;;;;;;5.93;1.70;;;15.80;98.20;;;;;;4990981;28;20615;-82
2023/02/17 15:30:34;;;;;;;;;;;;;;;;;;;;;
2023/02/17 15:33:25;;;;;;;2.33;1.97;;;15.80;98.20;;;;;;4994511;28;20482;-81
2023/02/17 15:35:56;;;;;;;3.60;2.20;;;15.80;98.20;;;;;;4994885;28;20561;-83
2023/02/17 15:38:52;;;;;;;2.23;2.03;;;15.70;98.40;;;;;;4997659;28;20459;-84
2023/02/17 15:41:27;;;;;;;2.50;2.30;;;15.70;98.60;;;;;;5004015;28;20469;-84
2023/02/17 15:44:04;;;;;;;2.40;2.20;;;15.70;98.80;;;;;;5002491;28;20463;-82
2023/02/17 15:46:59;;;;;;;;;;;;;;;;;;;;;
2023/02/17 15:50:02;;;;;;;3.23;2.33;;;15.70;99.10;;;;;;4983454;28;20443;-82
2023/02/17 15:52:56;;;;;;;;;;;;;;;;;;;;;
2023/02/17 15:55:45;;;;;;;1.60;1.40;;;15.50;99.30;;;;;;5007943;28;20451;-85
2023/02/17 15:58:19;;;;;;;1.60;1.50;;;15.50;99.40;;;;;;5007695;28;20451;-85
2023/02/17 16:00:48;;;;;;;2.40;2.20;;;15.40;99.40;;;;;;5011992;28;20432;-86
2023/02/17 16:03:37;;;;;;;2.50;1.63;;;15.40;99.50;;;;;;5003646;28;20592;-83
2023/02/17 16:06:11;;;;;;;1.40;1.30;;;15.30;99.50;;;;;;5013329;28;20479;-86
2023/02/17 16:09:34;;;;;;;2.60;2.33;;;15.30;99.60;;;;;;4997734;28;20449;-83
2023/02/17 16:12:26;;;;;;;1.40;1.37;;;15.30;99.60;;;;;;4985668;28;20466;-83
2023/02/17 16:15:29;;;;;;;1.90;1.50;;;15.20;99.70;;;;;;4976703;28;20535;-84
2023/02/17 16:18:22;;;;;;;3.53;1.50;;;15.30;99.90;;;;;;5011824;28;20459;-84
2023/02/17 16:20:53;;;;;;;2.13;1.40;;;15.20;99.90;;;;;;4988183;28;20474;-83
2023/02/17 16:23:21;;;;;;;3.10;1.87;;;15.20;99.90;;;;;;4998362;28;20524;-83
2023/02/17 16:26:04;;;;;;;1.80;1.70;;;15.10;99.90;;;;;;5001690;28;21083;-83
2023/02/17 16:28:44;;;;;;;1.83;1.60;;;15.00;99.90;;;;;;5015663;28;20515;-81
2023/02/17 16:31:20;;;;;;;2.30;1.47;;;14.90;99.90;;;;;;5016230;28;20435;-83
2023/02/17 16:33:50;;;;;;;2.50;2.30;;;14.90;99.90;;;;;;5014400;28;20446;-84
2023/02/17 16:36:26;;;;;;;3.50;2.07;;;14.80;99.90;;;;;;5020162;28;20470;-87
2023/02/17 16:42:38;;;;;;;2.00;1.70;;;14.70;99.90;;;;;;5013638;28;20507;-86
2023/02/17 16:45:19;;;;;;;3.70;1.53;;;14.70;99.90;;;;;;5018523;28;20561;-86
2023/02/17 16:48:25;;;;;;;;;;;;;;;;;;;;;
2023/02/17 16:51:02;;;;;;;1.53;1.43;;;14.60;99.90;;;;;;5015658;28;20438;-86
2023/02/17 16:53:30;;;;;;;1.83;1.73;;;14.50;99.90;;;;;;5009910;28;20473;-85
2023/02/17 16:56:08;;;;;;;;;;;;;;;;;;;;;
2023/02/17 16:58:39;;;;;;;2.50;1.60;;;14.50;99.90;;;;;;5008502;28;20458;-87
2023/02/17 17:01:13;;;;;;;2.67;2.17;;;14.30;99.90;;;;;;5013070;28;20455;-82
2023/02/17 17:03:47;;;;;;;2.10;1.90;;;14.40;99.90;;;;;;5002175;28;20458;-82
2023/02/17 17:06:45;;;;;;;4.10;2.00;;;14.40;99.90;;;;;;5016619;28;20587;-82
2023/02/17 17:09:24;;;;;;;2.43;2.17;;;14.30;99.90;;;;;;4983413;28;20453;-82
2023/02/17 17:11:53;;;;;;;2.33;2.13;;;14.30;99.90;;;;;;4998447;28;20470;-82
2023/02/17 17:14:23;;;;;;;2.30;2.20;;;14.30;99.90;;;;;;4992259;28;20551;-82
2023/02/17 17:16:54;;;;;;;2.90;2.13;;;14.20;99.90;;;;;;4998281;28;20528;-83
2023/02/17 17:19:31;;;;;;;3.20;2.00;;;14.20;99.90;;;;;;5006372;28;20482;-81
2023/02/17 17:22:01;;;;;;;3.50;2.03;;;14.20;99.90;;;;;;4993503;28;20490;-81
2023/02/17 17:24:30;;;;;;;2.33;1.90;;;14.20;99.90;;;;;;4993057;28;20455;-81
2023/02/17 17:27:18;;;;;;;2.70;1.90;;;14.20;99.90;;;;;;5017089;28;20489;-81
2023/02/17 17:29:51;;;;;;;2.90;2.50;;;14.20;99.90;;;;;;5000951;28;20461;-80
2023/02/17 17:32:27;;;;;;;1.83;1.70;;;14.10;99.90;;;;;;4999015;28;20463;-81
2023/02/17 17:34:54;;;;;;;2.10;1.60;;;14.10;99.90;;;;;;4998453;28;20442;-81
2023/02/17 17:37:24;;;;;;;1.67;1.57;;;14.20;99.90;;;;;;5000080;28;20450;-81
2023/02/17 17:39:59;;;;;;;1.90;1.70;;;14.10;99.90;;;;;;5001937;28;20455;-81
2023/02/17 17:42:29;;;;;;;4.67;1.83;;;14.10;99.90;;;;;;5002912;28;20471;-80
2023/02/17 17:45:04;;;;;;;2.03;1.93;;;14.20;99.90;;;;;;5003621;28;20470;-81
2023/02/17 17:47:33;;;;;;;5.80;1.93;;;14.10;99.90;;;;;;5003259;28;20475;-81
2023/02/17 17:50:27;;;;;;;2.07;1.87;;;14.10;99.90;;;;;;4999701;28;20447;-81
2023/02/17 17:53:02;;;;;;;4.57;2.10;;;14.00;99.90;;;;;;4999246;28;20637;-81
2023/02/17 17:55:29;;;;;;;2.60;1.73;;;14.10;99.90;;;;;;5001961;28;20451;-80
2023/02/17 17:57:58;;;;;;;2.43;2.23;;;14.10;99.90;;;;;;5005276;28;20538;-81
2023/02/17 18:01:05;;;;;;;1.90;1.70;;;14.10;99.90;;;;;;4998448;28;20487;-81
2023/02/17 18:03:25;;;;;;;2.27;2.07;;;14.10;99.90;;;;;;4999201;28;20467;-80
2023/02/17 18:06:03;;;;;;;4.10;3.70;;;14.00;99.90;;;;;;4995755;28;20490;-82
2023/02/17 18:08:33;;;;;;;2.17;1.70;;;14.00;99.90;;;;;;5007250;28;20455;-80
2023/02/17 18:11:04;;;;;;;2.60;2.40;;;14.00;99.90;;;;;;5002476;28;20513;-80
2023/02/17 18:13:33;;;;;;;3.00;2.30;;;13.90;99.90;;;;;;5001482;28;20471;-81
2023/02/17 18:16:08;;;;;;;2.20;2.10;;;14.00;99.90;;;;;;4987637;28;20547;-81
2023/02/17 18:18:38;;;;;;;3.47;2.50;;;14.00;99.90;;;;;;4991843;28;20462;-80
2023/02/17 18:21:08;;;;;;;4.13;2.20;;;13.90;99.90;;;;;;5003746;28;20471;-81
2023/02/17 18:23:38;;;;;;;2.40;2.20;;;13.90;99.90;;;;;;5013682;28;20475;-81
2023/02/17 18:26:08;;;;;;;4.50;2.97;;;14.00;99.90;;;;;;5003685;28;20487;-80
2023/02/17 18:28:37;;;;;;;2.87;2.30;;;13.90;99.90;;;;;;5007132;28;20463;-80
2023/02/17 18:31:15;;;;;;;2.90;2.60;;;13.90;99.90;;;;;;5017049;28;20443;-80
2023/02/17 18:33:47;;;;;;;6.97;3.57;;;13.90;99.90;;;;;;5096860;23;20513;-80
2023/02/17 18:36:26;;;;;;;3.97;2.73;;;13.80;99.90;;;;;;5058038;28;20513;-81
2023/02/17 18:38:56;;;;;;;2.77;2.40;;;13.90;99.90;;;;;;5057771;28;20536;-80
2023/02/17 18:41:28;;;;;;;3.73;2.80;;;13.90;99.90;;;;;;5047598;28;20449;-80
2023/02/17 18:43:57;;;;;;;3.50;2.70;;;13.80;99.90;;;;;;5027797;28;20449;-78
2023/02/17 18:46:28;;;;;;;3.03;2.77;;;13.80;99.90;;;;;;5016888;28;20488;-79
2023/02/17 18:48:56;;;;;;;2.90;2.60;;;13.80;99.90;;;;;;5021721;28;20442;-79
2023/02/17 18:51:27;;;;;;;3.43;3.00;;;13.90;99.90;;;;;;5019792;28;20504;-80
2023/02/17 18:53:58;;;;;;;3.10;2.80;;;13.80;99.90;;;;;;5030280;28;20521;-80
2023/02/17 18:56:29;;;;;;;3.20;2.47;;;13.90;99.90;;;;;;5031794;28;20608;-80
2023/02/17 18:58:59;;;;;;;3.63;2.63;;;13.80;99.90;;;;;;5027858;28;20458;-80
2023/02/17 19:01:34;;;;;;;3.13;2.83;;;13.80;99.90;;;;;;5028860;28;20505;-79
2023/02/17 19:04:08;;;;;;;2.67;2.40;;;13.70;99.90;;;;;;5025922;28;20446;-81
2023/02/17 19:06:39;;;;;;;3.63;2.90;;;13.80;99.90;;;;;;5026649;28;20501;-80
2023/02/17 19:11:50;;;;;;;2.70;2.50;;;13.70;99.90;;;;;;5153764;22;20502;-81
2023/02/17 19:14:18;;;;;;;2.87;2.67;;;13.70;99.90;;;;;;5013373;28;20479;-80
2023/02/17 19:16:52;;;;;;;3.70;3.40;;;13.70;99.90;;;;;;5009320;28;20477;-80
2023/02/17 19:19:39;;;;;;;;;;;;;;;;;;;;;
2023/02/17 19:22:22;;;;;;;2.60;2.40;;;13.70;99.90;;;;;;5012903;28;20511;-82
2023/02/17 19:24:58;;;;;;;3.07;2.80;;;13.70;99.90;;;;;;5003154;28;20521;-80
2023/02/17 19:27:47;;;;;;;2.97;2.40;;;13.70;99.90;;;;;;4991383;28;20473;-81
2023/02/17 19:30:52;;;;;;;2.73;2.53;;;13.70;99.90;;;;;;4986914;28;20459;-82
2023/02/17 19:33:22;;;;;;;4.00;3.20;;;13.60;99.90;;;;;;4993386;28;20478;-80
2023/02/17 19:36:28;;;;;;;3.77;3.47;;;13.60;99.90;;;;;;4988171;28;20446;-79
2023/02/17 19:39:14;;;;;;;3.40;3.20;;;13.70;99.90;;;;;;4988368;28;21204;-79
2023/02/17 19:41:54;;;;;;;3.47;2.87;;;13.60;99.90;;;;;;5001675;28;20471;-80
2023/02/17 19:44:46;;;;;;;4.37;3.63;;;13.60;99.90;;;;;;4988047;28;20890;-81
2023/02/17 19:47:22;;;;;;;3.70;3.40;;;13.60;99.90;;;;;;4986498;28;20561;-81
2023/02/17 19:50:16;;;;;;;3.77;3.47;;;13.60;99.90;;;;;;4998715;28;20462;-82
2023/02/17 19:53:37;;;;;;;4.20;3.80;;;13.50;99.90;;;;;;5019318;28;20507;-81
2023/02/17 19:56:37;;;;;;;3.93;3.63;;;13.50;99.90;;;;;;4987802;28;20836;-81
2023/02/17 19:59:22;;;;;;;4.23;3.80;;;13.50;99.90;;;;;;4995285;28;20459;-82
2023/02/17 20:02:13;;;;;;;5.87;4.50;;;13.50;99.90;;;;;;4992661;28;20517;-81
2023/02/17 20:04:49;;;;;;;4.13;3.73;;;13.50;99.90;;;;;;4989906;28;20569;-82
2023/02/17 20:07:38;;;;;;;3.90;3.60;;;13.50;99.90;;;;;;4973338;28;20488;-81
2023/02/17 20:10:40;;;;;;;4.60;4.13;;;13.50;99.90;;;;;;4975038;28;20545;-82
2023/02/17 20:13:45;;;;;;;4.67;4.20;;;13.50;99.90;;;;;;4976315;28;21033;-81
2023/02/17 20:16:27;;;;;;;5.60;4.50;;;13.50;99.90;;;;;;4972372;28;20473;-81
2023/02/17 20:19:06;;;;;;;4.13;3.73;;;13.50;99.90;;;;;;4976691;28;20472;-81
2023/02/17 20:21:41;;;;;;;4.13;3.83;;;13.50;99.90;;;;;;4978199;28;20452;-81
2023/02/17 20:24:23;;;;;;;4.00;3.70;;;13.50;99.90;;;;;;4976627;28;20463;-81
2023/02/17 20:27:01;;;;;;;4.87;4.47;;;13.50;99.90;;;;;;4976735;28;20555;-80
2023/02/17 20:29:36;;;;;;;5.27;4.87;;;13.40;99.90;;;;;;4981919;28;20455;-81
2023/02/17 20:32:09;;;;;;;5.10;4.60;;;13.40;99.90;;;;;;4977167;28;20463;-80
2023/02/17 20:34:50;;;;;;;6.00;5.50;;;13.40;99.90;;;;;;4970107;28;20510;-81
2023/02/17 20:37:26;;;;;;;5.70;5.10;;;13.30;99.90;;;;;;4978118;28;20542;-79
2023/02/17 20:40:02;;;;;;;5.00;4.60;;;13.40;99.90;;;;;;4975708;28;20471;-80
2023/02/17 20:42:50;;;;;;;7.50;5.27;;;13.30;99.90;;;;;;4970205;28;20846;-82
2023/02/17 20:45:25;;;;;;;5.00;4.57;;;13.30;99.90;;;;;;4972303;28;20983;-80
2023/02/17 20:48:06;;;;;;;6.83;4.47;;;13.30;99.90;;;;;;4990973;28;20614;-80
2023/02/17 20:50:56;;;;;;;5.20;4.80;;;13.30;99.90;;;;;;4977415;28;20443;-81
2023/02/17 20:53:39;;;;;;;7.40;4.80;;;13.30;99.90;;;;;;4966466;28;21072;-81
2023/02/17 20:56:33;;;;;;;5.90;5.30;;;13.30;99.90;;;;;;4978271;28;20455;-82
2023/02/17 20:59:11;;;;;;;6.30;4.90;;;13.30;99.90;;;;;;4976425;28;20949;-80
2023/02/17 21:02:04;;;;;;;;;;;;;;;;;;;;;
2023/02/17 21:04:41;;;;;;;;;;;;;;;;;;;;;
2023/02/17 21:07:23;;;;;;;6.27;5.23;;;13.20;99.90;;;;;;4980895;28;20484;-81
2023/02/17 21:09:58;;;;;;;5.20;4.70;;;13.20;99.90;;;;;;4977528;28;20483;-81
2023/02/17 21:12:37;;;;;;;6.20;5.60;;;13.20;99.90;;;;;;4981280;28;20514;-79
2023/02/17 21:15:19;;;;;;;4.80;4.30;;;13.30;99.90;;;;;;4974644;28;20498;-82
2023/02/17 21:17:52;;;;;;;5.60;5.10;;;13.20;99.90;;;;;;4980858;28;20510;-80
2023/02/17 21:20:36;;;;;;;5.40;4.90;;;13.20;99.90;;;;;;4980927;28;20568;-82
2023/02/17 21:23:46;;;;;;;5.37;4.87;;;13.20;99.90;;;;;;4976304;28;20536;-82
2023/02/17 21:26:43;;;;;;;5.57;4.40;;;13.20;99.90;;;;;;4902237;29;20529;-81
2023/02/17 21:29:33;;;;;;;5.37;4.80;;;13.20;99.90;;;;;;4982741;28;20448;-82
2023/02/17 21:32:13;;;;;;;6.13;5.00;;;13.20;99.90;;;;;;4977710;28;20464;-82
2023/02/17 21:35:21;;;;;;;5.07;4.40;;;13.20;99.90;;;;;;4984866;28;20491;-82
2023/02/17 21:37:53;;;;;;;4.93;4.40;;;13.20;99.90;;;;;;4984513;28;20443;-82
2023/02/17 21:40:38;;;;;;;4.93;4.20;;;13.20;99.90;;;;;;4982810;28;20474;-82
2023/02/17 21:46:44;;;;;;;5.00;4.50;;;13.10;99.90;;;;;;4978652;28;20506;-81
2023/02/17 21:49:44;;;;;;;5.07;4.57;;;13.10;99.90;;;;;;4987280;28;20469;-82
2023/02/17 21:52:37;;;;;;;8.77;6.40;;;13.20;99.90;;;;;;4972126;28;20543;-81
2023/02/17 21:55:30;;;;;;;5.00;4.17;;;13.10;99.90;;;;;;4977121;28;20456;-80
2023/02/17 21:58:37;;;;;;;6.80;5.97;;;13.20;99.90;;;;;;4978358;28;20517;-81
2023/02/17 22:01:41;;;;;;;4.40;3.73;;;13.10;99.90;;;;;;4994553;28;20456;-81
2023/02/17 22:04:27;;;;;;;4.80;4.33;;;13.10;99.90;;;;;;4985325;28;20566;-80
2023/02/17 22:07:10;;;;;;;5.53;4.10;;;13.10;99.90;;;;;;4976263;28;20463;-81
2023/02/17 22:09:54;;;;;;;;;;;;;;;;;;;;;
2023/02/17 22:12:28;;;;;;;5.47;4.13;;;13.10;99.90;;;;;;4982584;28;20483;-80
2023/02/17 22:17:33;;;;;;;4.67;4.17;;;13.00;99.90;;;;;;5244419;23;20475;-81
2023/02/17 22:20:03;;;;;;;4.50;4.10;;;13.10;99.90;;;;;;5372914;23;20474;-81
2023/02/17 22:25:17;;;;;;;6.37;5.77;;;13.00;99.90;;;;;;4997094;28;20466;-80
2023/02/17 22:27:55;;;;;;;5.70;4.83;;;13.00;99.90;;;;;;4972297;28;20479;-80
2023/02/17 22:30:29;;;;;;;5.70;5.00;;;13.00;99.90;;;;;;4994396;28;20442;-80
2023/02/17 22:33:03;;;;;;;5.77;5.13;;;13.00;99.90;;;;;;4997877;28;20496;-80
2023/02/17 22:35:39;;;;;;;5.80;5.27;;;13.00;99.90;;;;;;4982275;28;20448;-80
2023/02/17 22:38:12;;;;;;;5.87;5.10;;;13.00;99.90;;;;;;4981579;28;20441;-81
2023/02/17 22:40:45;;;;;;;7.03;5.47;;;13.00;99.90;;;;;;4983460;28;20450;-79
2023/02/17 22:43:28;;;;;;;7.13;6.03;;;13.00;99.90;;;;;;5026927;23;20505;-79
2023/02/17 22:46:10;;;;;;;6.20;4.93;;;13.00;99.90;;;;;;5012092;28;20623;-80
2023/02/17 22:48:49;;;;;;;5.40;4.47;;;13.00;99.90;;;;;;5002709;28;20586;-81
2023/02/17 22:51:32;;;;;;;6.17;5.27;;;13.00;99.90;;;;;;5004698;28;20490;-79
2023/02/17 22:53:59;;;;;;;5.93;5.00;;;13.00;99.90;;;;;;5002229;28;20455;-79
2023/02/17 22:56:27;;;;;;;5.80;5.10;;;13.00;99.90;;;;;;5002971;28;20458;-80
2023/02/17 22:59:13;;;;;;;5.27;4.63;;;13.00;99.90;;;;;;5004006;28;20443;-80
2023/02/17 23:01:45;;;;;;;6.50;5.90;;;13.00;99.90;;;;;;5005764;28;20543;-79
2023/02/17 23:04:38;;;;;;;6.63;5.47;;;13.00;99.90;;;;;;5007372;28;20461;-79
2023/02/17 23:07:05;;;;;;;5.57;4.80;;;13.00;99.90;;;;;;5024745;23;20513;-83
2023/02/17 23:09:40;;;;;;;6.87;5.27;;;13.00;99.90;;;;;;5017357;28;20467;-81
2023/02/17 23:12:11;;;;;;;5.33;4.83;;;13.00;99.90;;;;;;5002788;28;20463;-81
2023/02/17 23:14:41;;;;;;;4.90;4.50;;;13.00;99.90;;;;;;4992534;28;20487;-82
2023/02/17 23:17:13;;;;;;;5.10;4.60;;;13.00;99.90;;;;;;4982871;28;20514;-82
2023/02/17 23:19:43;;;;;;;6.97;6.20;;;13.00;99.90;;;;;;4999821;28;21658;-80
2023/02/17 23:22:14;;;;;;;5.60;5.10;;;13.00;99.90;;;;;;4982942;28;20475;-80
2023/02/17 23:24:46;;;;;;;5.30;4.70;;;13.00;99.90;;;;;;4998503;28;20479;-82
2023/02/17 23:27:13;;;;;;;5.80;5.20;;;13.00;99.90;;;;;;5001400;28;20478;-81
2023/02/17 23:29:40;;;;;;;6.03;5.43;;;13.00;99.90;;;;;;4975245;28;20448;-81
2023/02/17 23:32:07;;;;;;;5.53;4.80;;;12.90;99.90;;;;;;4983814;28;20467;-81
2023/02/17 23:34:34;;;;;;;6.07;5.47;;;13.00;99.90;;;;;;4981011;28;20458;-81
2023/02/17 23:37:01;;;;;;;6.33;5.60;;;12.90;99.90;;;;;;4980310;28;20467;-81
2023/02/17 23:39:27;;;;;;;6.03;5.43;;;12.90;99.90;;;;;;4975334;28;20522;-80
2023/02/17 23:41:54;;;;;;;7.10;6.03;;;12.90;99.90;;;;;;4993004;28;20477;-80
2023/02/17 23:47:07;;;;;;;6.63;5.93;;;12.90;99.90;;;;;;5191630;23;20481;-81
2023/02/17 23:49:33;;;;;;;5.90;5.13;;;12.90;99.90;;;;;;5031806;28;20864;-82
2023/02/17 23:52:02;;;;;;;6.07;5.47;;;12.90;99.90;;;;;;5028892;28;20510;-80
2023/02/17 23:54:32;;;;;;;6.00;5.50;;;13.00;99.90;;;;;;4997987;28;20447;-82
2023/02/17 23:57:02;;;;;;;6.10;5.50;;;12.90;99.90;;;;;;5004164;28;20463;-81
2023/02/17 23:59:31;;;;;;;6.07;5.47;;;13.00;99.90;;;;;;5011362;28;20574;-81
